Time;durP1;ratioP1;P1;durP2;ratioP2;P2;SDS_P1;SDS_P2;PMS_P1;PMS_P2;Temp;Humidity;BMP_temperature;BMP_pressure;BME280_temperature;BME280_humidity;BME280_pressure;Samples;Min_cycle;Max_cycle;Signal;HPM_P1;HPM_P2
2023/01/17 00:00:08;;;;;;;;;;;19.60;42.50;;;;;;5116019;28;20260;-70
2023/01/17 00:02:34;;;;;;;;;;;20.20;41.50;;;;;;5115783;28;19924;-70
2023/01/17 00:10:39;;;;;;;;;;;21.30;39.30;;;;;;5097397;28;19927;-70
2023/01/17 00:13:04;;;;;;;;;;;21.60;38.80;;;;;;5098036;28;19924;-70
2023/01/17 00:15:33;;;;;;;;;;;21.80;38.60;;;;;;5115959;28;20290;-70
2023/01/17 00:17:59;;;;;;;;;;;21.90;38.50;;;;;;5097492;28;19920;-70
2023/01/17 00:26:01;;;;;;;;;;;21.60;38.50;;;;;;5097386;28;20010;-71
2023/01/17 01:35:48;;;;;;;;;;;20.10;40.00;;;;;;5114420;28;19920;-70
2023/01/17 01:38:14;;;;;;;;;;;20.10;40.00;;;;;;5095870;28;19923;-71
2023/01/17 01:40:40;;;;;;;;;;;20.10;39.90;;;;;;5130019;27;19977;-70
2023/01/17 01:43:08;;;;;;;;;;;20.00;40.70;;;;;;5113945;28;19923;-70
2023/01/17 01:45:34;;;;;;;;;;;20.00;40.00;;;;;;5095802;28;19931;-71
2023/01/17 01:48:13;;;;;;;;;;;19.90;40.00;;;;;;5114144;28;20008;-70
2023/01/17 01:50:39;;;;;;;;;;;19.90;40.10;;;;;;5130299;27;20014;-71
2023/01/17 01:53:05;;;;;;;;;;;19.90;40.10;;;;;;5095584;28;20466;-71
2023/01/17 01:55:33;;;;;;;;;;;19.90;40.10;;;;;;5095654;28;19958;-70
2023/01/17 01:58:01;;;;;;;;;;;19.80;40.00;;;;;;5113685;28;19920;-70
2023/01/17 02:00:28;;;;;;;;;;;19.80;40.10;;;;;;5129590;27;19927;-70
2023/01/17 02:02:56;;;;;;;;;;;19.80;40.10;;;;;;5129218;27;19924;-70
2023/01/17 02:05:22;;;;;;;;;;;19.80;40.10;;;;;;5129580;27;19920;-70
2023/01/17 02:07:50;;;;;;;;;;;19.80;40.10;;;;;;5095598;28;19927;-71
2023/01/17 02:10:16;;;;;;;;;;;19.70;40.10;;;;;;5113592;28;19927;-71
2023/01/17 02:12:41;;;;;;;;;;;19.70;40.10;;;;;;5095014;28;19920;-71
2023/01/17 02:15:07;;;;;;;;;;;19.70;40.10;;;;;;5113464;28;20215;-70
2023/01/17 02:26:03;;;;;;;;;;;19.70;39.90;;;;;;5130868;27;20069;-69
2023/01/17 02:28:48;;;;;;;;;;;19.80;39.90;;;;;;5129493;28;19920;-68
2023/01/17 02:31:23;;;;;;;;;;;19.70;39.90;;;;;;5129475;28;19919;-69
2023/01/17 02:33:54;;;;;;;;;;;19.70;39.80;;;;;;5129302;28;19969;-68
2023/01/17 02:36:25;;;;;;;;;;;19.70;39.80;;;;;;5129892;28;19959;-69
2023/01/17 02:38:52;;;;;;;;;;;19.70;39.80;;;;;;5129566;28;19942;-68
2023/01/17 02:41:20;;;;;;;;;;;19.70;39.80;;;;;;5129585;28;19927;-68
2023/01/17 02:43:48;;;;;;;;;;;19.80;39.80;;;;;;5129164;28;19923;-71
2023/01/17 02:46:13;;;;;;;;;;;19.70;39.80;;;;;;5130364;27;19955;-68
2023/01/17 02:48:39;;;;;;;;;;;19.80;39.80;;;;;;5129432;28;20330;-68
2023/01/17 02:59:16;;;;;;;;;;;19.80;39.70;;;;;;5110273;27;20426;-68
2023/01/17 03:01:50;;;;;;;;;;;19.80;39.70;;;;;;5108837;28;20446;-68
2023/01/17 03:04:21;;;;;;;;;;;19.80;39.70;;;;;;5109273;28;19969;-69
2023/01/17 03:06:52;;;;;;;;;;;19.80;39.70;;;;;;5108888;28;19950;-69
2023/01/17 03:09:22;;;;;;;;;;;19.80;39.70;;;;;;5108768;28;19927;-68
2023/01/17 03:11:47;;;;;;;;;;;19.80;39.70;;;;;;5110026;28;20337;-68
2023/01/17 03:14:13;;;;;;;;;;;19.80;39.60;;;;;;5108743;28;19920;-68
2023/01/17 03:16:38;;;;;;;;;;;19.80;39.60;;;;;;5109017;28;19959;-68
2023/01/17 03:19:04;;;;;;;;;;;19.80;39.60;;;;;;5109862;28;20444;-69
2023/01/17 03:21:30;;;;;;;;;;;19.80;39.60;;;;;;5109831;28;20282;-69
2023/01/17 03:23:55;;;;;;;;;;;19.70;39.60;;;;;;5108807;28;20014;-68
2023/01/17 03:26:21;;;;;;;;;;;19.70;39.60;;;;;;5109567;28;19920;-69
2023/01/17 03:28:46;;;;;;;;;;;19.70;39.70;;;;;;5108765;28;19920;-68
2023/01/17 03:31:14;;;;;;;;;;;19.70;39.70;;;;;;5108283;28;20215;-68
2023/01/17 03:33:39;;;;;;;;;;;19.70;39.70;;;;;;5109604;28;20131;-68
2023/01/17 03:36:05;;;;;;;;;;;19.70;39.60;;;;;;5108571;28;19920;-69
2023/01/17 03:38:30;;;;;;;;;;;19.70;39.70;;;;;;5108222;28;19939;-69
2023/01/17 03:40:56;;;;;;;;;;;19.70;39.60;;;;;;5108399;28;19920;-68
2023/01/17 03:43:21;;;;;;;;;;;19.70;39.60;;;;;;5108478;28;19967;-69
2023/01/17 03:45:48;;;;;;;;;;;19.70;39.60;;;;;;5108446;28;19969;-68
2023/01/17 03:48:13;;;;;;;;;;;19.70;39.70;;;;;;5108000;28;20379;-68
2023/01/17 03:50:39;;;;;;;;;;;19.70;39.60;;;;;;5109284;28;19926;-68
2023/01/17 03:53:04;;;;;;;;;;;19.70;39.60;;;;;;5109195;28;19920;-68
2023/01/17 03:55:30;;;;;;;;;;;19.70;39.60;;;;;;5107867;28;19923;-69
2023/01/17 03:57:55;;;;;;;;;;;19.70;39.50;;;;;;5110979;28;19924;-68
2023/01/17 04:00:21;;;;;;;;;;;19.70;39.60;;;;;;5145553;27;19920;-69
2023/01/17 04:02:47;;;;;;;;;;;19.70;39.60;;;;;;5129638;28;19920;-68
2023/01/17 04:05:12;;;;;;;;;;;19.70;39.60;;;;;;5111210;28;20010;-69
2023/01/17 04:07:38;;;;;;;;;;;19.70;39.60;;;;;;5129455;28;19920;-69
2023/01/17 04:10:03;;;;;;;;;;;19.60;39.60;;;;;;5133899;27;19920;-69
2023/01/17 04:12:32;;;;;;;;;;;19.60;39.60;;;;;;5115895;28;19978;-68
2023/01/17 04:14:57;;;;;;;;;;;19.70;39.70;;;;;;5115770;28;19926;-68
2023/01/17 04:17:23;;;;;;;;;;;19.60;39.60;;;;;;5131409;27;20437;-69
2023/01/17 04:19:49;;;;;;;;;;;19.60;40.30;;;;;;5131849;27;19920;-69
2023/01/17 04:22:14;;;;;;;;;;;19.60;39.60;;;;;;5115485;28;19927;-68
2023/01/17 04:24:40;;;;;;;;;;;19.60;39.60;;;;;;5115462;28;19946;-68
2023/01/17 04:27:05;;;;;;;;;;;19.60;39.60;;;;;;5115463;28;20366;-69
2023/01/17 04:29:31;;;;;;;;;;;19.60;39.60;;;;;;5097099;28;19919;-68
2023/01/17 04:31:56;;;;;;;;;;;19.60;39.50;;;;;;5097355;28;20014;-68
2023/01/17 04:34:22;;;;;;;;;;;19.60;39.60;;;;;;5097301;28;20275;-69
2023/01/17 04:36:47;;;;;;;;;;;19.60;39.50;;;;;;5097189;28;19919;-68
2023/01/17 04:39:13;;;;;;;;;;;19.60;39.60;;;;;;5097143;28;20416;-68
2023/01/17 04:41:38;;;;;;;;;;;19.60;39.50;;;;;;5096875;28;19926;-69
2023/01/17 04:44:04;;;;;;;;;;;19.60;39.50;;;;;;5097087;28;19972;-68
2023/01/17 04:46:29;;;;;;;;;;;19.60;39.50;;;;;;5096863;28;19928;-69
2023/01/17 04:48:55;;;;;;;;;;;19.60;39.40;;;;;;5096897;28;19920;-68
2023/01/17 04:51:20;;;;;;;;;;;19.60;39.40;;;;;;5096713;28;19919;-69
2023/01/17 04:53:46;;;;;;;;;;;19.60;39.40;;;;;;5096875;28;19920;-69
2023/01/17 04:56:12;;;;;;;;;;;19.60;39.40;;;;;;5114970;28;20296;-69
2023/01/17 04:58:37;;;;;;;;;;;19.60;39.40;;;;;;5096264;28;19931;-69
2023/01/17 05:01:03;;;;;;;;;;;19.60;39.40;;;;;;5096736;28;20291;-69
2023/01/17 05:03:29;;;;;;;;;;;19.60;39.40;;;;;;5096726;28;19919;-69
2023/01/17 05:05:55;;;;;;;;;;;19.60;39.40;;;;;;5096760;28;20286;-69
2023/01/17 05:08:20;;;;;;;;;;;19.60;39.30;;;;;;5115049;28;19920;-69
2023/01/17 05:10:46;;;;;;;;;;;19.60;39.30;;;;;;5096791;28;20018;-69
2023/01/17 05:13:12;;;;;;;;;;;19.70;39.30;;;;;;5096197;28;20349;-69
2023/01/17 05:15:37;;;;;;;;;;;19.80;39.20;;;;;;5096298;28;19927;-69
2023/01/17 05:18:07;;;;;;;;;;;19.80;39.00;;;;;;5114542;28;19979;-69
2023/01/17 05:20:33;;;;;;;;;;;19.80;38.90;;;;;;5095433;28;19967;-69
2023/01/17 05:22:59;;;;;;;;;;;19.90;38.90;;;;;;5096153;28;19919;-69
2023/01/17 05:25:26;;;;;;;;;;;19.90;38.70;;;;;;5096268;28;19968;-69
2023/01/17 05:27:51;;;;;;;;;;;20.00;38.70;;;;;;5114159;28;20378;-68
2023/01/17 05:30:17;;;;;;;;;;;20.00;38.60;;;;;;5114356;28;19945;-68
2023/01/17 05:32:44;;;;;;;;;;;20.00;38.50;;;;;;5114302;28;19926;-69
2023/01/17 05:35:09;;;;;;;;;;;20.10;38.50;;;;;;5096062;28;19972;-69
2023/01/17 05:37:35;;;;;;;;;;;20.00;38.40;;;;;;5095818;28;20359;-68
2023/01/17 05:40:00;;;;;;;;;;;20.00;38.40;;;;;;5113938;28;19919;-69
2023/01/17 05:42:26;;;;;;;;;;;20.10;38.40;;;;;;5096133;28;20344;-69
2023/01/17 05:44:51;;;;;;;;;;;20.10;38.30;;;;;;5113835;28;19926;-69
2023/01/17 05:47:17;;;;;;;;;;;20.10;38.20;;;;;;5096128;28;19934;-69
2023/01/17 05:49:42;;;;;;;;;;;20.10;38.20;;;;;;5113782;28;19919;-69
2023/01/17 05:52:08;;;;;;;;;;;20.10;38.20;;;;;;5113854;28;19920;-71
2023/01/17 05:54:34;;;;;;;;;;;20.10;38.20;;;;;;5095548;28;19926;-71
2023/01/17 05:56:59;;;;;;;;;;;20.10;38.20;;;;;;5113283;28;20018;-72
2023/01/17 05:59:25;;;;;;;;;;;20.00;38.10;;;;;;5129754;27;19919;-71
2023/01/17 06:01:50;;;;;;;;;;;20.00;38.20;;;;;;5113473;28;20030;-73
2023/01/17 06:04:16;;;;;;;;;;;20.00;38.20;;;;;;5095312;28;19987;-72
2023/01/17 06:06:41;;;;;;;;;;;20.00;38.20;;;;;;5095222;28;19959;-71
2023/01/17 06:09:07;;;;;;;;;;;20.00;38.20;;;;;;5095584;28;19919;-71
2023/01/17 06:11:32;;;;;;;;;;;20.00;38.20;;;;;;5113404;28;19927;-72
2023/01/17 06:13:58;;;;;;;;;;;20.00;38.20;;;;;;5095409;28;19920;-72
2023/01/17 06:16:29;;;;;;;;;;;20.00;38.20;;;;;;5095374;28;19926;-73
2023/01/17 06:18:55;;;;;;;;;;;20.00;38.20;;;;;;5113602;28;19967;-69
2023/01/17 06:21:20;;;;;;;;;;;20.00;38.10;;;;;;5113188;28;19970;-70
2023/01/17 06:23:46;;;;;;;;;;;20.00;38.10;;;;;;5113235;28;20347;-69
2023/01/17 06:26:11;;;;;;;;;;;19.90;38.00;;;;;;5113199;28;19920;-70
2023/01/17 06:28:37;;;;;;;;;;;19.90;38.00;;;;;;5129063;27;20293;-70
2023/01/17 06:31:04;;;;;;;;;;;20.00;38.00;;;;;;5113569;28;19919;-69
2023/01/17 06:33:30;;;;;;;;;;;20.00;38.00;;;;;;5112748;28;19924;-70
2023/01/17 06:35:55;;;;;;;;;;;19.90;37.90;;;;;;5113182;28;20286;-69
2023/01/17 06:38:21;;;;;;;;;;;20.00;37.90;;;;;;5093925;28;20008;-65
2023/01/17 06:40:46;;;;;;;;;;;19.90;37.80;;;;;;5093622;28;20019;-67
2023/01/17 06:43:12;;;;;;;;;;;20.10;37.90;;;;;;5110930;28;20027;-65
2023/01/17 06:45:37;;;;;;;;;;;20.30;37.90;;;;;;5107980;28;20386;-70
2023/01/17 06:48:04;;;;;;;;;;;20.80;37.40;;;;;;5092107;28;19927;-69
2023/01/17 06:50:29;;;;;;;;;;;21.20;36.90;;;;;;5102496;28;19924;-72
2023/01/17 06:52:56;;;;;;;;;;;21.70;36.30;;;;;;5090282;28;20332;-71
2023/01/17 06:55:22;;;;;;;;;;;22.10;35.60;;;;;;5086499;28;20383;-72
2023/01/17 06:57:48;;;;;;;;;;;22.50;35.10;;;;;;5087303;28;19930;-72
2023/01/17 07:00:16;;;;;;;;;;;22.70;34.50;;;;;;5085726;28;19966;-72
2023/01/17 07:02:41;;;;;;;;;;;23.00;34.10;;;;;;5087729;28;19920;-70
2023/01/17 07:05:07;;;;;;;;;;;23.20;33.60;;;;;;5087046;28;19920;-73
2023/01/17 07:07:33;;;;;;;;;;;23.40;33.00;;;;;;5124302;28;19920;-73
2023/01/17 07:09:59;;;;;;;;;;;23.50;32.60;;;;;;5087980;28;20385;-71
2023/01/17 07:12:27;;;;;;;;;;;23.70;32.20;;;;;;5087173;28;20288;-70
2023/01/17 07:14:53;;;;;;;;;;;23.90;32.20;;;;;;5094478;28;20362;-76
2023/01/17 07:17:18;;;;;;;;;;;24.00;31.90;;;;;;5110097;28;20014;-72
2023/01/17 07:19:44;;;;;;;;;;;24.10;31.30;;;;;;5090973;28;20006;-78
2023/01/17 07:22:09;;;;;;;;;;;24.30;30.90;;;;;;5086914;28;19938;-79
2023/01/17 07:24:36;;;;;;;;;;;24.40;31.00;;;;;;5087324;28;20336;-77
2023/01/17 07:27:02;;;;;;;;;;;24.50;30.80;;;;;;5088650;28;20363;-78
2023/01/17 07:29:27;;;;;;;;;;;24.50;30.70;;;;;;5095276;28;20443;-77
2023/01/17 07:31:53;;;;;;;;;;;24.50;30.50;;;;;;5071123;28;19932;-78
2023/01/17 07:34:18;;;;;;;;;;;24.50;30.50;;;;;;5072387;28;20006;-77
2023/01/17 07:36:44;;;;;;;;;;;24.50;30.40;;;;;;5077734;28;20399;-75
2023/01/17 07:39:09;;;;;;;;;;;24.30;31.00;;;;;;5075363;28;20383;-76
2023/01/17 07:41:40;;;;;;;;;;;24.30;31.30;;;;;;5091899;28;20554;-70
2023/01/17 07:44:07;;;;;;;;;;;24.20;31.60;;;;;;5077741;28;19920;-73
2023/01/17 07:46:33;;;;;;;;;;;24.20;31.70;;;;;;5076109;28;19924;-73
2023/01/17 07:48:58;;;;;;;;;;;23.90;31.70;;;;;;5079594;28;20483;-71
2023/01/17 07:51:24;;;;;;;;;;;23.70;32.40;;;;;;5068789;28;19981;-73
2023/01/17 07:53:49;;;;;;;;;;;23.60;32.60;;;;;;5104677;27;20688;-77
2023/01/17 07:56:15;;;;;;;;;;;23.80;32.50;;;;;;5092063;28;19921;-74
2023/01/17 07:58:40;;;;;;;;;;;23.90;32.80;;;;;;5081341;28;19964;-73
2023/01/17 08:01:07;;;;;;;;;;;23.90;32.80;;;;;;5097358;28;20058;-70
2023/01/17 08:03:38;;;;;;;;;;;23.90;32.80;;;;;;5078982;28;19959;-72
2023/01/17 08:06:04;;;;;;;;;;;23.80;33.00;;;;;;5090386;28;19957;-69
2023/01/17 08:08:30;;;;;;;;;;;23.80;33.30;;;;;;5105966;27;20752;-71
2023/01/17 08:10:55;;;;;;;;;;;23.60;33.20;;;;;;5090634;28;19924;-70
2023/01/17 08:13:21;;;;;;;;;;;23.30;33.70;;;;;;5075035;28;19927;-72
2023/01/17 08:15:47;;;;;;;;;;;23.10;34.30;;;;;;5079439;28;19928;-72
2023/01/17 08:18:12;;;;;;;;;;;23.10;34.40;;;;;;5072920;28;19935;-74
2023/01/17 08:20:38;;;;;;;;;;;22.90;34.50;;;;;;5092047;28;19924;-75
2023/01/17 08:23:03;;;;;;;;;;;22.60;34.80;;;;;;5072842;28;19934;-71
2023/01/17 08:25:29;;;;;;;;;;;22.50;35.00;;;;;;5071117;28;20523;-71
2023/01/17 08:27:55;;;;;;;;;;;22.40;35.20;;;;;;5095060;28;19936;-72
2023/01/17 08:30:21;;;;;;;;;;;22.30;35.40;;;;;;5106786;27;19923;-73
2023/01/17 08:32:47;;;;;;;;;;;22.30;35.70;;;;;;5094279;27;20579;-72
2023/01/17 08:35:13;;;;;;;;;;;22.20;35.70;;;;;;5095114;28;20362;-71
2023/01/17 08:37:38;;;;;;;;;;;22.20;35.80;;;;;;5094079;28;20058;-72
2023/01/17 08:40:05;;;;;;;;;;;22.30;35.80;;;;;;5074416;28;20671;-70
2023/01/17 08:42:36;;;;;;;;;;;22.30;35.80;;;;;;5075381;28;19932;-73
2023/01/17 08:45:05;;;;;;;;;;;22.40;35.60;;;;;;5074440;28;19927;-75
2023/01/17 08:47:31;;;;;;;;;;;22.40;35.50;;;;;;5075458;28;20389;-71
2023/01/17 08:49:58;;;;;;;;;;;22.40;35.50;;;;;;5079237;28;19933;-70
2023/01/17 08:52:24;;;;;;;;;;;22.40;35.70;;;;;;5091249;27;20661;-74
2023/01/17 08:54:52;;;;;;;;;;;22.50;35.90;;;;;;5077894;28;19927;-67
2023/01/17 08:57:19;;;;;;;;;;;22.50;35.90;;;;;;5108146;27;19970;-73
2023/01/17 08:59:44;;;;;;;;;;;22.60;36.00;;;;;;5094110;27;20026;-77
2023/01/17 09:02:13;;;;;;;;;;;22.70;35.80;;;;;;5074237;28;20351;-80
2023/01/17 09:04:39;;;;;;;;;;;22.70;35.70;;;;;;5073958;28;19927;-71
2023/01/17 09:07:06;;;;;;;;;;;22.80;35.60;;;;;;5092246;28;20386;-70
2023/01/17 09:09:31;;;;;;;;;;;22.90;35.60;;;;;;5076070;28;20351;-72
2023/01/17 09:11:57;;;;;;;;;;;22.90;35.60;;;;;;5093532;27;20034;-70
2023/01/17 09:14:23;;;;;;;;;;;22.90;35.70;;;;;;5092377;28;20467;-72
2023/01/17 09:16:48;;;;;;;;;;;22.80;36.60;;;;;;5070645;28;20490;-73
2023/01/17 09:19:14;;;;;;;;;;;22.70;35.90;;;;;;5068095;28;19959;-71
2023/01/17 09:21:40;;;;;;;;;;;22.70;36.10;;;;;;5110167;27;20413;-73
2023/01/17 09:24:05;;;;;;;;;;;22.60;36.20;;;;;;5105241;27;19931;-77
2023/01/17 09:26:34;;;;;;;;;;;22.50;36.40;;;;;;5071116;28;19928;-72
2023/01/17 09:28:59;;;;;;;;;;;22.50;36.60;;;;;;5094224;27;19935;-74
2023/01/17 09:31:25;;;;;;;;;;;22.40;36.50;;;;;;5074505;28;19924;-73
2023/01/17 09:33:52;;;;;;;;;;;22.50;36.60;;;;;;5076868;28;19923;-73
2023/01/17 09:36:18;;;;;;;;;;;22.50;36.80;;;;;;5073085;28;20373;-72
2023/01/17 09:38:44;;;;;;;;;;;22.50;36.80;;;;;;5094083;28;20270;-71
2023/01/17 09:41:18;;;;;;;;;;;22.50;36.90;;;;;;5073463;28;19935;-73
2023/01/17 09:43:46;;;;;;;;;;;22.50;37.00;;;;;;5092582;28;19934;-73
2023/01/17 09:46:14;;;;;;;;;;;22.50;37.80;;;;;;5077950;28;19924;-71
2023/01/17 09:48:41;;;;;;;;;;;22.40;37.10;;;;;;5077591;28;19928;-72
2023/01/17 09:51:18;;;;;;;;;;;22.40;37.00;;;;;;5086220;28;19929;-73
2023/01/17 09:53:44;;;;;;;;;;;22.40;37.00;;;;;;5104474;27;20394;-70
2023/01/17 09:56:13;;;;;;;;;;;22.50;36.90;;;;;;5089457;28;19928;-72
2023/01/17 09:58:58;;;;;;;;;;;22.50;36.70;;;;;;5072742;28;19935;-72
2023/01/17 10:07:07;;;;;;;;;;;22.60;37.30;;;;;;5089149;27;1863549;-70
2023/01/17 10:20:54;;;;;;;;;;;23.00;36.30;;;;;;5086114;27;20314;-73
2023/01/17 10:26:08;;;;;;;;;;;23.00;37.20;;;;;;5057340;28;19920;-71
2023/01/17 10:28:45;;;;;;;;;;;22.90;36.50;;;;;;5073068;28;19937;-76
2023/01/17 10:31:14;;;;;;;;;;;22.90;36.60;;;;;;5053765;28;19936;-71
2023/01/17 10:33:43;;;;;;;;;;;22.90;36.60;;;;;;5057048;28;20281;-70
2023/01/17 10:36:14;;;;;;;;;;;22.90;36.70;;;;;;5068219;28;20008;-71
2023/01/17 10:38:43;;;;;;;;;;;22.90;36.80;;;;;;5071882;28;19928;-70
2023/01/17 10:43:54;;;;;;;;;;;22.80;37.00;;;;;;5086571;27;19935;-69
2023/01/17 10:46:21;;;;;;;;;;;22.70;37.10;;;;;;5084613;28;19955;-70
2023/01/17 10:48:49;;;;;;;;;;;22.60;37.10;;;;;;5088846;28;19973;-69
2023/01/17 10:56:33;;;;;;;;;;;22.30;37.30;;;;;;5070446;27;19921;-69
2023/01/17 10:59:14;;;;;;;;;;;22.10;37.20;;;;;;5098181;28;19928;-69
2023/01/17 11:01:40;;;;;;;;;;;22.10;37.30;;;;;;5102346;28;20546;-67
2023/01/17 11:04:14;;;;;;;;;;;22.10;37.40;;;;;;5085744;28;19954;-69
2023/01/17 11:06:41;;;;;;;;;;;22.10;37.40;;;;;;5064032;28;19973;-67
2023/01/17 11:09:10;;;;;;;;;;;22.10;37.40;;;;;;5065317;28;20019;-71
2023/01/17 11:11:43;;;;;;;;;;;22.20;37.40;;;;;;5072594;28;19925;-73
2023/01/17 11:14:15;;;;;;;;;;;22.30;37.40;;;;;;5067336;28;19928;-74
2023/01/17 11:16:41;;;;;;;;;;;22.40;37.30;;;;;;5063550;28;19932;-74
2023/01/17 11:19:27;;;;;;;;;;;22.50;37.30;;;;;;5062824;28;20822;-77
2023/01/17 11:21:56;;;;;;;;;;;22.60;37.30;;;;;;5070499;28;19939;-73
2023/01/17 11:24:27;;;;;;;;;;;22.80;37.20;;;;;;5068891;28;20015;-79
2023/01/17 11:26:52;;;;;;;;;;;22.80;37.10;;;;;;5063777;28;19924;-75
2023/01/17 11:29:38;;;;;;;;;;;22.80;36.80;;;;;;5075484;28;19931;-72
2023/01/17 11:32:23;;;;;;;;;;;22.70;36.50;;;;;;5075243;28;19935;-72
2023/01/17 11:35:09;;;;;;;;;;;22.50;36.50;;;;;;5065525;28;19920;-73
2023/01/17 11:37:35;;;;;;;;;;;22.30;36.40;;;;;;5063634;28;19928;-72
2023/01/17 11:40:16;;;;;;;;;;;22.10;36.20;;;;;;5077338;28;20383;-77
2023/01/17 11:42:41;;;;;;;;;;;21.90;36.50;;;;;;5069413;28;20501;-75
2023/01/17 11:45:27;;;;;;;;;;;21.90;36.80;;;;;;5098029;28;19924;-74
2023/01/17 11:53:36;;;;;;;;;;;22.10;36.90;;;;;;5072437;27;19944;-69
2023/01/17 11:56:04;;;;;;;;;;;22.20;36.80;;;;;;5102529;28;19924;-67
2023/01/17 11:58:31;;;;;;;;;;;22.40;36.70;;;;;;5075245;28;19956;-70
2023/01/17 12:00:58;;;;;;;;;;;22.50;36.50;;;;;;5074418;28;20391;-69
2023/01/17 12:03:30;;;;;;;;;;;22.70;36.40;;;;;;5069293;28;21223;-70
2023/01/17 12:06:16;;;;;;;;;;;22.80;36.30;;;;;;5105264;28;19950;-75
2023/01/17 12:14:09;;;;;;;;;;;22.90;36.30;;;;;;5079291;27;20409;-68
2023/01/17 12:16:50;;;;;;;;;;;22.80;36.40;;;;;;5056771;28;19928;-71
2023/01/17 12:22:11;;;;;;;;;;;22.80;36.50;;;;;;5089924;27;19930;-69
2023/01/17 12:27:25;;;;;;;;;;;22.60;36.80;;;;;;5079634;27;19920;-70
2023/01/17 12:30:02;;;;;;;;;;;22.60;36.90;;;;;;5069170;28;19920;-69
2023/01/17 12:32:51;;;;;;;;;;;22.50;37.00;;;;;;5072091;28;19925;-72
2023/01/17 12:35:21;;;;;;;;;;;22.40;37.20;;;;;;5061841;28;19999;-71
2023/01/17 12:37:49;;;;;;;;;;;22.40;37.30;;;;;;5099227;28;19924;-71
2023/01/17 12:40:23;;;;;;;;;;;22.30;37.50;;;;;;5076487;28;19985;-70
2023/01/17 12:42:53;;;;;;;;;;;22.30;38.40;;;;;;5073925;28;19928;-70
2023/01/17 12:45:23;;;;;;;;;;;22.20;37.70;;;;;;5071179;28;20333;-75
2023/01/17 12:47:53;;;;;;;;;;;22.20;37.90;;;;;;5067323;28;19966;-71
2023/01/17 12:50:28;;;;;;;;;;;22.20;38.00;;;;;;5067127;28;19928;-70
2023/01/17 12:55:39;;;;;;;;;;;22.30;38.00;;;;;;5078205;27;19942;-71
2023/01/17 12:58:06;;;;;;;;;;;22.30;37.90;;;;;;5077071;28;20021;-71
2023/01/17 13:00:36;;;;;;;;;;;22.40;37.90;;;;;;5050948;28;19971;-73
2023/01/17 13:03:06;;;;;;;;;;;22.40;37.80;;;;;;5081140;28;19935;-69
2023/01/17 13:05:35;;;;;;;;;;;22.50;37.70;;;;;;5081641;28;20372;-69
2023/01/17 13:10:56;;;;;;;;;;;22.50;37.60;;;;;;5083133;27;2058798;-71
2023/01/17 13:13:24;;;;;;;;;;;22.50;37.50;;;;;;5134015;27;19934;-70
2023/01/17 13:15:53;;;;;;;;;;;22.60;37.50;;;;;;5132506;27;20022;-70
2023/01/17 13:18:22;;;;;;;;;;;22.70;37.40;;;;;;5132515;27;20397;-68
2023/01/17 13:23:30;;;;;;;;;;;22.60;38.30;;;;;;5089865;27;19946;-70
2023/01/17 13:25:57;;;;;;;;;;;22.60;37.70;;;;;;5072645;28;19928;-66
2023/01/17 13:28:43;;;;;;;;;;;22.50;37.70;;;;;;5102749;27;20403;-68
2023/01/17 13:31:28;;;;;;;;;;;22.50;37.50;;;;;;5076460;28;20006;-66
2023/01/17 13:37:03;;;;;;;;;;;22.40;37.10;;;;;;5087520;27;19927;-68
2023/01/17 13:39:48;;;;;;;;;;;22.30;36.80;;;;;;5100984;28;19931;-68
2023/01/17 13:42:34;;;;;;;;;;;22.30;36.80;;;;;;5103218;28;20644;-69
2023/01/17 13:45:05;;;;;;;;;;;22.20;36.90;;;;;;5072373;28;20286;-70
2023/01/17 13:50:31;;;;;;;;;;;22.40;37.00;;;;;;5099732;27;19920;-73
2023/01/17 13:52:56;;;;;;;;;;;22.60;36.90;;;;;;5068249;28;19931;-71
2023/01/17 13:55:42;;;;;;;;;;;22.70;36.90;;;;;;5066035;28;20011;-73
2023/01/17 13:58:25;;;;;;;;;;;22.80;36.90;;;;;;5054504;28;19921;-71
2023/01/17 14:00:53;;;;;;;;;;;22.90;36.90;;;;;;5070855;28;20395;-70
2023/01/17 14:03:39;;;;;;;;;;;22.90;36.90;;;;;;5069592;28;20467;-77
2023/01/17 14:06:24;;;;;;;;;;;23.00;37.10;;;;;;5101361;28;20014;-70
2023/01/17 14:08:49;;;;;;;;;;;23.00;37.10;;;;;;5059593;28;19932;-71
2023/01/17 14:11:15;;;;;;;;;;;23.00;38.00;;;;;;5077171;28;19924;-71
2023/01/17 14:13:40;;;;;;;;;;;22.90;36.40;;;;;;5079777;28;19920;-69
2023/01/17 14:16:23;;;;;;;;;;;22.60;35.80;;;;;;5082768;28;19920;-68
2023/01/17 14:18:48;;;;;;;;;;;22.50;35.90;;;;;;5073705;28;20026;-69
2023/01/17 14:24:18;;;;;;;;;;;22.30;36.10;;;;;;5089906;27;19923;-70
2023/01/17 14:26:55;;;;;;;;;;;22.20;36.20;;;;;;5117528;27;20346;-67
2023/01/17 14:29:41;;;;;;;;;;;22.20;36.20;;;;;;5081358;28;19931;-71
2023/01/17 14:32:09;;;;;;;;;;;22.30;36.10;;;;;;5115799;28;19938;-69
2023/01/17 14:34:35;;;;;;;;;;;22.40;36.00;;;;;;5081049;28;19952;-69
2023/01/17 14:37:20;;;;;;;;;;;22.60;35.80;;;;;;5121333;27;19947;-70
2023/01/17 14:39:47;;;;;;;;;;;22.70;35.50;;;;;;5100749;28;20012;-71
2023/01/17 14:42:15;;;;;;;;;;;22.80;35.10;;;;;;5086754;28;19981;-69
2023/01/17 14:44:44;;;;;;;;;;;22.90;34.90;;;;;;5080598;28;19928;-70
2023/01/17 14:47:11;;;;;;;;;;;23.10;34.50;;;;;;5116421;28;19920;-70
2023/01/17 14:49:37;;;;;;;;;;;23.20;34.10;;;;;;5083941;28;20003;-70
2023/01/17 14:52:03;;;;;;;;;;;23.30;33.80;;;;;;5083186;28;20012;-69
2023/01/17 14:54:29;;;;;;;;;;;23.40;33.40;;;;;;5114492;27;19963;-71
2023/01/17 14:57:13;;;;;;;;;;;23.50;33.50;;;;;;5081218;28;20460;-70
2023/01/17 14:59:38;;;;;;;;;;;23.50;33.20;;;;;;5081207;28;19920;-70
2023/01/17 15:02:10;;;;;;;;;;;23.60;33.10;;;;;;5080326;28;20620;-70
2023/01/17 15:04:38;;;;;;;;;;;23.50;33.00;;;;;;5079510;28;19989;-69
2023/01/17 15:07:03;;;;;;;;;;;23.50;33.00;;;;;;5080345;28;19920;-69
2023/01/17 15:09:31;;;;;;;;;;;23.40;32.90;;;;;;5083297;28;20361;-70
2023/01/17 15:11:57;;;;;;;;;;;23.30;33.10;;;;;;5113146;27;20399;-69
2023/01/17 15:14:26;;;;;;;;;;;23.10;33.30;;;;;;5080819;28;20102;-68
2023/01/17 15:16:52;;;;;;;;;;;22.90;33.30;;;;;;5116009;27;20011;-68
2023/01/17 15:19:21;;;;;;;;;;;22.70;33.60;;;;;;5082684;28;20011;-71
2023/01/17 15:21:49;;;;;;;;;;;22.70;33.90;;;;;;5117745;27;20015;-68
2023/01/17 15:26:57;;;;;;;;;;;22.40;34.30;;;;;;5104322;27;19942;-67
2023/01/17 15:29:24;;;;;;;;;;;22.30;34.60;;;;;;5080026;28;19920;-68
2023/01/17 15:31:53;;;;;;;;;;;22.10;34.70;;;;;;5082496;28;19924;-70
2023/01/17 15:37:01;;;;;;;;;;;21.80;35.20;;;;;;5107426;27;19912;-67
2023/01/17 15:39:29;;;;;;;;;;;21.70;35.50;;;;;;5105345;28;20382;-67
2023/01/17 15:41:56;;;;;;;;;;;21.50;35.60;;;;;;5105986;28;19928;-68
2023/01/17 15:44:38;;;;;;;;;;;21.30;36.00;;;;;;5106507;28;19931;-68
2023/01/17 15:47:04;;;;;;;;;;;21.20;36.30;;;;;;5106106;28;20405;-69
2023/01/17 15:49:29;;;;;;;;;;;21.00;36.70;;;;;;5106499;28;19998;-68
2023/01/17 15:51:58;;;;;;;;;;;20.80;37.00;;;;;;5108895;28;19920;-67
2023/01/17 15:57:22;;;;;;;;;;;20.70;37.60;;;;;;5107277;27;20299;-70
2023/01/17 15:59:52;;;;;;;;;;;20.50;37.80;;;;;;5106766;28;19927;-68
2023/01/17 16:02:22;;;;;;;;;;;20.40;38.10;;;;;;5105952;28;19924;-70
2023/01/17 16:04:47;;;;;;;;;;;20.40;38.30;;;;;;5104984;28;19926;-69
2023/01/17 16:07:19;;;;;;;;;;;20.30;38.50;;;;;;5109112;28;20400;-68
2023/01/17 16:09:45;;;;;;;;;;;20.20;38.70;;;;;;5106992;28;19926;-68
2023/01/17 16:12:11;;;;;;;;;;;20.10;38.70;;;;;;5107410;28;19920;-73
2023/01/17 16:14:36;;;;;;;;;;;20.10;39.00;;;;;;5107398;28;19919;-74
2023/01/17 16:17:04;;;;;;;;;;;20.00;39.00;;;;;;5106586;28;20023;-69
2023/01/17 16:19:31;;;;;;;;;;;20.00;39.10;;;;;;5107883;28;19967;-72
2023/01/17 16:22:01;;;;;;;;;;;20.00;38.90;;;;;;5106291;28;19923;-74
2023/01/17 16:24:29;;;;;;;;;;;20.00;38.90;;;;;;5105427;28;19920;-73
2023/01/17 16:26:55;;;;;;;;;;;20.00;38.80;;;;;;5108400;28;20374;-71
2023/01/17 16:29:20;;;;;;;;;;;19.90;38.70;;;;;;5107354;28;19927;-72
2023/01/17 16:31:46;;;;;;;;;;;19.90;38.70;;;;;;5106603;28;19924;-73
2023/01/17 16:34:11;;;;;;;;;;;19.80;38.70;;;;;;5104053;28;19927;-73
2023/01/17 16:36:37;;;;;;;;;;;19.80;38.80;;;;;;5106053;28;19931;-73
2023/01/17 16:39:03;;;;;;;;;;;19.70;38.90;;;;;;5109381;28;19972;-73
2023/01/17 16:41:28;;;;;;;;;;;19.60;39.00;;;;;;5108442;28;19924;-72
2023/01/17 16:43:56;;;;;;;;;;;19.50;39.10;;;;;;5109472;28;19920;-72
2023/01/17 16:46:22;;;;;;;;;;;19.40;39.20;;;;;;5109316;28;20359;-73
2023/01/17 16:48:47;;;;;;;;;;;19.30;39.30;;;;;;5108241;28;19927;-73
2023/01/17 16:51:13;;;;;;;;;;;19.20;39.40;;;;;;5109273;28;19920;-72
2023/01/17 16:53:38;;;;;;;;;;;19.20;39.50;;;;;;5108178;28;19935;-68
2023/01/17 16:56:06;;;;;;;;;;;19.20;39.50;;;;;;5107645;28;20011;-73
2023/01/17 16:58:32;;;;;;;;;;;19.20;39.50;;;;;;5108891;28;19920;-69
2023/01/17 17:00:59;;;;;;;;;;;19.20;39.50;;;;;;5107718;28;19927;-72
2023/01/17 17:03:24;;;;;;;;;;;19.20;39.50;;;;;;5108928;28;19927;-72
2023/01/17 17:05:54;;;;;;;;;;;19.20;39.50;;;;;;5107745;28;19924;-73